sensor_id;sensor_type;location;lat;lon;timestamp;P1;durP1;ratioP1;P2;durP2;ratioP2
49784;SDS011;35679;38.732;-121.358;2023-08-06T00:00:12;6.72;;;5.35;;
49784;SDS011;35679;38.732;-121.358;2023-08-06T00:03:02;6.25;;;5.43;;
49784;SDS011;35679;38.732;-121.358;2023-08-06T00:05:53;7.18;;;5.53;;
49784;SDS011;35679;38.732;-121.358;2023-08-06T00:08:42;5.90;;;5.32;;
49784;SDS011;35679;38.732;-121.358;2023-08-06T00:11:32;6.00;;;5.50;;
49784;SDS011;35679;38.732;-121.358;2023-08-06T00:14:21;6.47;;;5.95;;
49784;SDS011;35679;38.732;-121.358;2023-08-06T00:17:10;6.45;;;5.68;;
49784;SDS011;35679;38.732;-121.358;2023-08-06T00:20:01;6.03;;;5.53;;
49784;SDS011;35679;38.732;-121.358;2023-08-06T00:22:53;5.80;;;5.30;;
49784;SDS011;35679;38.732;-121.358;2023-08-06T00:25:42;6.10;;;5.50;;
49784;SDS011;35679;38.732;-121.358;2023-08-06T00:28:31;6.32;;;5.70;;
49784;SDS011;35679;38.732;-121.358;2023-08-06T00:31:21;6.35;;;5.72;;
49784;SDS011;35679;38.732;-121.358;2023-08-06T00:34:10;5.82;;;5.35;;
49784;SDS011;35679;38.732;-121.358;2023-08-06T00:37:00;6.10;;;5.60;;
49784;SDS011;35679;38.732;-121.358;2023-08-06T00:39:49;6.75;;;6.00;;
49784;SDS011;35679;38.732;-121.358;2023-08-06T00:42:38;6.05;;;5.55;;
49784;SDS011;35679;38.732;-121.358;2023-08-06T00:45:28;6.20;;;5.60;;
49784;SDS011;35679;38.732;-121.358;2023-08-06T00:48:19;6.20;;;5.60;;
49784;SDS011;35679;38.732;-121.358;2023-08-06T00:51:09;6.53;;;5.93;;
49784;SDS011;35679;38.732;-121.358;2023-08-06T00:53:59;6.30;;;5.70;;
49784;SDS011;35679;38.732;-121.358;2023-08-06T00:56:50;6.22;;;5.63;;
49784;SDS011;35679;38.732;-121.358;2023-08-06T00:59:39;5.85;;;5.35;;
49784;SDS011;35679;38.732;-121.358;2023-08-06T01:02:28;6.60;;;6.00;;
49784;SDS011;35679;38.732;-121.358;2023-08-06T01:05:18;6.20;;;5.70;;
49784;SDS011;35679;38.732;-121.358;2023-08-06T01:11:41;7.70;;;7.05;;
49784;SDS011;35679;38.732;-121.358;2023-08-06T01:14:48;7.53;;;6.93;;
49784;SDS011;35679;38.732;-121.358;2023-08-06T01:17:41;7.97;;;7.38;;
49784;SDS011;35679;38.732;-121.358;2023-08-06T01:20:31;8.00;;;7.40;;
49784;SDS011;35679;38.732;-121.358;2023-08-06T01:23:20;8.20;;;7.60;;
49784;SDS011;35679;38.732;-121.358;2023-08-06T01:32:13;7.68;;;7.07;;
49784;SDS011;35679;38.732;-121.358;2023-08-06T01:37:54;8.68;;;7.97;;
49784;SDS011;35679;38.732;-121.358;2023-08-06T01:40:44;7.80;;;7.30;;
49784;SDS011;35679;38.732;-121.358;2023-08-06T01:43:34;8.05;;;7.50;;
49784;SDS011;35679;38.732;-121.358;2023-08-06T01:46:23;8.43;;;7.72;;
49784;SDS011;35679;38.732;-121.358;2023-08-06T01:49:13;8.10;;;7.50;;
49784;SDS011;35679;38.732;-121.358;2023-08-06T01:52:02;7.95;;;7.38;;
49784;SDS011;35679;38.732;-121.358;2023-08-06T01:54:52;7.60;;;7.00;;
49784;SDS011;35679;38.732;-121.358;2023-08-06T01:57:42;7.60;;;7.03;;
49784;SDS011;35679;38.732;-121.358;2023-08-06T02:00:32;8.13;;;7.53;;
49784;SDS011;35679;38.732;-121.358;2023-08-06T02:03:22;8.77;;;8.07;;
49784;SDS011;35679;38.732;-121.358;2023-08-06T02:06:11;9.00;;;8.40;;
49784;SDS011;35679;38.732;-121.358;2023-08-06T02:09:04;8.20;;;7.45;;
49784;SDS011;35679;38.732;-121.358;2023-08-06T02:11:55;8.65;;;8.05;;
49784;SDS011;35679;38.732;-121.358;2023-08-06T02:14:45;9.32;;;8.68;;
49784;SDS011;35679;38.732;-121.358;2023-08-06T02:17:34;9.32;;;8.60;;
49784;SDS011;35679;38.732;-121.358;2023-08-06T02:20:23;9.35;;;8.75;;
49784;SDS011;35679;38.732;-121.358;2023-08-06T02:23:14;9.27;;;8.63;;
49784;SDS011;35679;38.732;-121.358;2023-08-06T02:26:04;9.25;;;8.52;;
49784;SDS011;35679;38.732;-121.358;2023-08-06T02:28:53;9.20;;;8.60;;
49784;SDS011;35679;38.732;-121.358;2023-08-06T02:31:43;7.53;;;7.03;;
49784;SDS011;35679;38.732;-121.358;2023-08-06T02:34:32;7.50;;;7.00;;
49784;SDS011;35679;38.732;-121.358;2023-08-06T02:37:22;8.82;;;8.13;;
49784;SDS011;35679;38.732;-121.358;2023-08-06T02:40:11;8.48;;;7.88;;
49784;SDS011;35679;38.732;-121.358;2023-08-06T02:43:00;8.68;;;7.97;;
49784;SDS011;35679;38.732;-121.358;2023-08-06T02:45:50;10.93;;;10.13;;
49784;SDS011;35679;38.732;-121.358;2023-08-06T02:48:39;11.48;;;10.68;;
49784;SDS011;35679;38.732;-121.358;2023-08-06T02:51:29;6.20;;;5.60;;
49784;SDS011;35679;38.732;-121.358;2023-08-06T02:54:18;6.03;;;5.50;;
49784;SDS011;35679;38.732;-121.358;2023-08-06T02:57:08;6.03;;;5.43;;
49784;SDS011;35679;38.732;-121.358;2023-08-06T02:59:58;7.90;;;7.30;;
49784;SDS011;35679;38.732;-121.358;2023-08-06T03:02:48;8.07;;;7.47;;
49784;SDS011;35679;38.732;-121.358;2023-08-06T03:05:51;7.47;;;6.95;;
49784;SDS011;35679;38.732;-121.358;2023-08-06T03:08:54;6.20;;;5.70;;
49784;SDS011;35679;38.732;-121.358;2023-08-06T03:11:44;7.38;;;6.88;;
49784;SDS011;35679;38.732;-121.358;2023-08-06T03:14:35;6.88;;;6.35;;
49784;SDS011;35679;38.732;-121.358;2023-08-06T03:17:26;8.02;;;7.30;;
49784;SDS011;35679;38.732;-121.358;2023-08-06T03:20:16;9.48;;;8.77;;
49784;SDS011;35679;38.732;-121.358;2023-08-06T03:23:06;8.07;;;7.47;;
49784;SDS011;35679;38.732;-121.358;2023-08-06T03:25:55;7.85;;;7.25;;
49784;SDS011;35679;38.732;-121.358;2023-08-06T03:28:45;8.65;;;8.05;;
49784;SDS011;35679;38.732;-121.358;2023-08-06T03:31:34;7.50;;;6.97;;
49784;SDS011;35679;38.732;-121.358;2023-08-06T03:34:24;7.80;;;7.20;;
49784;SDS011;35679;38.732;-121.358;2023-08-06T03:37:14;8.35;;;7.68;;
49784;SDS011;35679;38.732;-121.358;2023-08-06T03:40:03;8.40;;;7.70;;
49784;SDS011;35679;38.732;-121.358;2023-08-06T03:42:54;8.13;;;7.50;;
49784;SDS011;35679;38.732;-121.358;2023-08-06T03:45:43;7.00;;;6.40;;
49784;SDS011;35679;38.732;-121.358;2023-08-06T03:48:33;7.05;;;6.45;;
49784;SDS011;35679;38.732;-121.358;2023-08-06T03:51:22;6.97;;;6.45;;
49784;SDS011;35679;38.732;-121.358;2023-08-06T03:54:13;7.00;;;6.40;;
49784;SDS011;35679;38.732;-121.358;2023-08-06T03:57:02;6.30;;;5.80;;
49784;SDS011;35679;38.732;-121.358;2023-08-06T03:59:52;7.53;;;6.93;;
49784;SDS011;35679;38.732;-121.358;2023-08-06T04:02:44;7.20;;;6.60;;
49784;SDS011;35679;38.732;-121.358;2023-08-06T04:05:34;7.65;;;7.07;;
49784;SDS011;35679;38.732;-121.358;2023-08-06T04:08:23;7.43;;;6.70;;
49784;SDS011;35679;38.732;-121.358;2023-08-06T04:11:13;6.95;;;6.35;;
49784;SDS011;35679;38.732;-121.358;2023-08-06T04:14:02;7.97;;;7.38;;
49784;SDS011;35679;38.732;-121.358;2023-08-06T04:16:52;6.85;;;6.25;;
49784;SDS011;35679;38.732;-121.358;2023-08-06T04:19:41;7.30;;;6.70;;
49784;SDS011;35679;38.732;-121.358;2023-08-06T04:22:30;7.57;;;6.93;;
49784;SDS011;35679;38.732;-121.358;2023-08-06T04:25:20;5.75;;;5.25;;
49784;SDS011;35679;38.732;-121.358;2023-08-06T04:28:10;6.10;;;5.50;;
49784;SDS011;35679;38.732;-121.358;2023-08-06T04:30:59;5.63;;;5.13;;
49784;SDS011;35679;38.732;-121.358;2023-08-06T04:36:40;5.70;;;5.20;;
49784;SDS011;35679;38.732;-121.358;2023-08-06T04:39:30;5.45;;;4.97;;
49784;SDS011;35679;38.732;-121.358;2023-08-06T04:42:19;6.05;;;5.45;;
49784;SDS011;35679;38.732;-121.358;2023-08-06T04:45:12;5.53;;;5.13;;
49784;SDS011;35679;38.732;-121.358;2023-08-06T04:48:01;5.72;;;5.15;;
49784;SDS011;35679;38.732;-121.358;2023-08-06T04:50:50;5.90;;;5.30;;
49784;SDS011;35679;38.732;-121.358;2023-08-06T04:53:40;6.05;;;5.47;;
49784;SDS011;35679;38.732;-121.358;2023-08-06T04:56:29;5.97;;;5.38;;
49784;SDS011;35679;38.732;-121.358;2023-08-06T04:59:20;5.95;;;5.38;;
49784;SDS011;35679;38.732;-121.358;2023-08-06T05:02:09;5.72;;;5.22;;
49784;SDS011;35679;38.732;-121.358;2023-08-06T05:04:59;6.13;;;5.53;;
49784;SDS011;35679;38.732;-121.358;2023-08-06T05:07:49;6.43;;;5.82;;
49784;SDS011;35679;38.732;-121.358;2023-08-06T05:10:38;6.55;;;5.78;;
49784;SDS011;35679;38.732;-121.358;2023-08-06T05:13:31;6.35;;;5.50;;
49784;SDS011;35679;38.732;-121.358;2023-08-06T05:16:21;5.47;;;4.97;;
49784;SDS011;35679;38.732;-121.358;2023-08-06T05:19:10;5.55;;;5.05;;
49784;SDS011;35679;38.732;-121.358;2023-08-06T05:21:59;5.95;;;5.45;;
49784;SDS011;35679;38.732;-121.358;2023-08-06T05:24:50;6.25;;;5.32;;
49784;SDS011;35679;38.732;-121.358;2023-08-06T05:27:39;6.13;;;5.63;;
49784;SDS011;35679;38.732;-121.358;2023-08-06T05:30:29;7.38;;;5.50;;
49784;SDS011;35679;38.732;-121.358;2023-08-06T05:33:18;6.28;;;5.68;;
49784;SDS011;35679;38.732;-121.358;2023-08-06T05:36:08;6.35;;;5.75;;
49784;SDS011;35679;38.732;-121.358;2023-08-06T05:38:57;5.95;;;5.45;;
49784;SDS011;35679;38.732;-121.358;2023-08-06T05:41:46;6.22;;;5.63;;
49784;SDS011;35679;38.732;-121.358;2023-08-06T05:44:36;5.80;;;5.30;;
49784;SDS011;35679;38.732;-121.358;2023-08-06T05:47:26;6.40;;;5.25;;
49784;SDS011;35679;38.732;-121.358;2023-08-06T05:50:15;7.97;;;5.88;;
49784;SDS011;35679;38.732;-121.358;2023-08-06T05:53:04;6.28;;;5.68;;
49784;SDS011;35679;38.732;-121.358;2023-08-06T05:55:54;6.70;;;5.50;;
49784;SDS011;35679;38.732;-121.358;2023-08-06T05:58:43;6.25;;;5.70;;
49784;SDS011;35679;38.732;-121.358;2023-08-06T06:01:34;7.10;;;6.10;;
49784;SDS011;35679;38.732;-121.358;2023-08-06T06:04:24;6.10;;;5.50;;
49784;SDS011;35679;38.732;-121.358;2023-08-06T06:07:14;6.30;;;5.70;;
49784;SDS011;35679;38.732;-121.358;2023-08-06T06:10:03;6.38;;;5.78;;
49784;SDS011;35679;38.732;-121.358;2023-08-06T06:12:53;6.45;;;5.80;;
49784;SDS011;35679;38.732;-121.358;2023-08-06T06:15:43;7.57;;;5.65;;
49784;SDS011;35679;38.732;-121.358;2023-08-06T06:18:32;7.03;;;5.90;;
49784;SDS011;35679;38.732;-121.358;2023-08-06T06:21:21;6.20;;;5.60;;
49784;SDS011;35679;38.732;-121.358;2023-08-06T06:24:11;7.72;;;5.63;;
49784;SDS011;35679;38.732;-121.358;2023-08-06T06:27:01;6.57;;;5.93;;
49784;SDS011;35679;38.732;-121.358;2023-08-06T06:29:51;6.60;;;6.00;;
49784;SDS011;35679;38.732;-121.358;2023-08-06T06:32:41;7.70;;;5.80;;
49784;SDS011;35679;38.732;-121.358;2023-08-06T06:35:30;6.47;;;5.78;;
49784;SDS011;35679;38.732;-121.358;2023-08-06T06:38:19;8.10;;;5.90;;
49784;SDS011;35679;38.732;-121.358;2023-08-06T06:41:09;6.70;;;5.50;;
49784;SDS011;35679;38.732;-121.358;2023-08-06T06:43:58;7.38;;;6.15;;
49784;SDS011;35679;38.732;-121.358;2023-08-06T06:46:48;6.22;;;5.63;;
49784;SDS011;35679;38.732;-121.358;2023-08-06T06:49:37;7.20;;;6.07;;
49784;SDS011;35679;38.732;-121.358;2023-08-06T06:52:27;6.15;;;5.55;;
49784;SDS011;35679;38.732;-121.358;2023-08-06T06:55:16;6.90;;;6.20;;
49784;SDS011;35679;38.732;-121.358;2023-08-06T06:58:05;7.25;;;5.95;;
49784;SDS011;35679;38.732;-121.358;2023-08-06T07:00:55;7.78;;;5.97;;
49784;SDS011;35679;38.732;-121.358;2023-08-06T07:03:45;5.88;;;5.28;;
49784;SDS011;35679;38.732;-121.358;2023-08-06T07:06:35;7.22;;;5.93;;
49784;SDS011;35679;38.732;-121.358;2023-08-06T07:09:24;7.63;;;6.10;;
49784;SDS011;35679;38.732;-121.358;2023-08-06T07:12:13;6.70;;;5.75;;
49784;SDS011;35679;38.732;-121.358;2023-08-06T07:15:04;6.20;;;5.60;;
49784;SDS011;35679;38.732;-121.358;2023-08-06T07:17:57;8.05;;;5.70;;
49784;SDS011;35679;38.732;-121.358;2023-08-06T07:20:49;7.07;;;5.85;;
49784;SDS011;35679;38.732;-121.358;2023-08-06T07:23:39;7.00;;;6.30;;
49784;SDS011;35679;38.732;-121.358;2023-08-06T07:26:29;6.18;;;5.57;;
49784;SDS011;35679;38.732;-121.358;2023-08-06T07:29:18;8.85;;;6.05;;
49784;SDS011;35679;38.732;-121.358;2023-08-06T07:32:10;6.53;;;5.93;;
49784;SDS011;35679;38.732;-121.358;2023-08-06T07:34:59;6.47;;;5.85;;
49784;SDS011;35679;38.732;-121.358;2023-08-06T07:37:49;6.50;;;5.90;;
49784;SDS011;35679;38.732;-121.358;2023-08-06T07:40:38;6.95;;;5.80;;
49784;SDS011;35679;38.732;-121.358;2023-08-06T07:43:27;7.22;;;5.80;;
49784;SDS011;35679;38.732;-121.358;2023-08-06T07:46:17;7.22;;;5.80;;
49784;SDS011;35679;38.732;-121.358;2023-08-06T07:49:06;6.63;;;5.53;;
49784;SDS011;35679;38.732;-121.358;2023-08-06T07:51:56;6.47;;;5.60;;
49784;SDS011;35679;38.732;-121.358;2023-08-06T07:54:45;6.90;;;6.10;;
49784;SDS011;35679;38.732;-121.358;2023-08-06T07:57:34;7.18;;;5.72;;
49784;SDS011;35679;38.732;-121.358;2023-08-06T08:00:24;6.18;;;5.57;;
49784;SDS011;35679;38.732;-121.358;2023-08-06T08:03:14;6.20;;;5.60;;
49784;SDS011;35679;38.732;-121.358;2023-08-06T08:06:04;7.85;;;6.05;;
49784;SDS011;35679;38.732;-121.358;2023-08-06T08:08:54;7.47;;;6.15;;
49784;SDS011;35679;38.732;-121.358;2023-08-06T08:11:43;6.22;;;5.50;;
49784;SDS011;35679;38.732;-121.358;2023-08-06T08:14:33;6.50;;;5.53;;
49784;SDS011;35679;38.732;-121.358;2023-08-06T08:17:28;6.75;;;6.05;;
49784;SDS011;35679;38.732;-121.358;2023-08-06T08:20:17;6.15;;;5.55;;
49784;SDS011;35679;38.732;-121.358;2023-08-06T08:23:07;6.70;;;6.10;;
49784;SDS011;35679;38.732;-121.358;2023-08-06T08:25:56;6.93;;;5.78;;
49784;SDS011;35679;38.732;-121.358;2023-08-06T08:28:45;7.18;;;5.57;;
49784;SDS011;35679;38.732;-121.358;2023-08-06T08:31:35;7.30;;;6.32;;
49784;SDS011;35679;38.732;-121.358;2023-08-06T08:34:27;7.20;;;6.03;;
49784;SDS011;35679;38.732;-121.358;2023-08-06T08:37:17;7.00;;;5.82;;
49784;SDS011;35679;38.732;-121.358;2023-08-06T08:40:07;7.00;;;5.88;;
49784;SDS011;35679;38.732;-121.358;2023-08-06T08:42:57;8.20;;;6.30;;
49784;SDS011;35679;38.732;-121.358;2023-08-06T08:45:50;6.70;;;6.10;;
49784;SDS011;35679;38.732;-121.358;2023-08-06T08:48:41;6.25;;;5.65;;
49784;SDS011;35679;38.732;-121.358;2023-08-06T08:51:30;6.82;;;5.90;;
49784;SDS011;35679;38.732;-121.358;2023-08-06T08:54:22;6.65;;;5.93;;
49784;SDS011;35679;38.732;-121.358;2023-08-06T08:57:12;6.55;;;5.80;;
49784;SDS011;35679;38.732;-121.358;2023-08-06T09:00:02;6.93;;;6.15;;
49784;SDS011;35679;38.732;-121.358;2023-08-06T09:02:51;6.72;;;6.03;;
49784;SDS011;35679;38.732;-121.358;2023-08-06T09:05:43;6.28;;;5.68;;
49784;SDS011;35679;38.732;-121.358;2023-08-06T09:08:34;6.30;;;5.70;;
49784;SDS011;35679;38.732;-121.358;2023-08-06T09:11:27;6.32;;;5.72;;
49784;SDS011;35679;38.732;-121.358;2023-08-06T09:14:26;8.52;;;5.78;;
49784;SDS011;35679;38.732;-121.358;2023-08-06T09:17:16;7.15;;;6.45;;
49784;SDS011;35679;38.732;-121.358;2023-08-06T09:20:11;7.80;;;5.88;;
49784;SDS011;35679;38.732;-121.358;2023-08-06T09:23:10;6.82;;;6.05;;
49784;SDS011;35679;38.732;-121.358;2023-08-06T09:25:59;7.50;;;6.20;;
49784;SDS011;35679;38.732;-121.358;2023-08-06T09:28:52;6.43;;;5.72;;
49784;SDS011;35679;38.732;-121.358;2023-08-06T09:31:42;6.53;;;5.72;;
49784;SDS011;35679;38.732;-121.358;2023-08-06T09:34:33;8.13;;;6.70;;
49784;SDS011;35679;38.732;-121.358;2023-08-06T09:37:22;7.68;;;6.38;;
49784;SDS011;35679;38.732;-121.358;2023-08-06T09:43:14;7.82;;;6.20;;
49784;SDS011;35679;38.732;-121.358;2023-08-06T09:46:10;6.95;;;6.20;;
49784;SDS011;35679;38.732;-121.358;2023-08-06T09:49:01;6.90;;;6.18;;
49784;SDS011;35679;38.732;-121.358;2023-08-06T09:51:52;6.60;;;5.95;;
49784;SDS011;35679;38.732;-121.358;2023-08-06T09:57:34;7.63;;;5.68;;
49784;SDS011;35679;38.732;-121.358;2023-08-06T10:00:24;8.30;;;6.63;;
49784;SDS011;35679;38.732;-121.358;2023-08-06T10:03:14;8.30;;;7.03;;
49784;SDS011;35679;38.732;-121.358;2023-08-06T10:06:06;7.75;;;6.55;;
49784;SDS011;35679;38.732;-121.358;2023-08-06T10:08:57;8.02;;;6.53;;
49784;SDS011;35679;38.732;-121.358;2023-08-06T10:11:48;7.35;;;6.38;;
49784;SDS011;35679;38.732;-121.358;2023-08-06T10:14:41;7.03;;;6.18;;
49784;SDS011;35679;38.732;-121.358;2023-08-06T10:17:32;8.00;;;6.50;;
49784;SDS011;35679;38.732;-121.358;2023-08-06T10:20:37;7.57;;;6.53;;
49784;SDS011;35679;38.732;-121.358;2023-08-06T10:23:33;6.95;;;5.93;;
49784;SDS011;35679;38.732;-121.358;2023-08-06T10:26:27;8.65;;;6.53;;
49784;SDS011;35679;38.732;-121.358;2023-08-06T10:29:36;6.55;;;5.80;;
49784;SDS011;35679;38.732;-121.358;2023-08-06T10:35:48;7.35;;;6.65;;
49784;SDS011;35679;38.732;-121.358;2023-08-06T10:38:46;7.25;;;6.22;;
49784;SDS011;35679;38.732;-121.358;2023-08-06T10:41:37;7.28;;;6.10;;
49784;SDS011;35679;38.732;-121.358;2023-08-06T10:44:26;6.85;;;6.05;;
49784;SDS011;35679;38.732;-121.358;2023-08-06T10:47:28;8.75;;;6.50;;
49784;SDS011;35679;38.732;-121.358;2023-08-06T10:50:17;7.90;;;6.22;;
49784;SDS011;35679;38.732;-121.358;2023-08-06T10:53:07;6.68;;;6.07;;
49784;SDS011;35679;38.732;-121.358;2023-08-06T10:55:57;6.60;;;5.90;;
49784;SDS011;35679;38.732;-121.358;2023-08-06T10:58:47;7.93;;;6.22;;
49784;SDS011;35679;38.732;-121.358;2023-08-06T11:01:38;9.43;;;6.40;;
49784;SDS011;35679;38.732;-121.358;2023-08-06T11:04:30;6.45;;;5.78;;
49784;SDS011;35679;38.732;-121.358;2023-08-06T11:10:11;7.25;;;6.55;;
49784;SDS011;35679;38.732;-121.358;2023-08-06T11:13:02;8.00;;;6.47;;
49784;SDS011;35679;38.732;-121.358;2023-08-06T11:15:52;7.18;;;5.93;;
49784;SDS011;35679;38.732;-121.358;2023-08-06T11:18:42;8.90;;;6.03;;
49784;SDS011;35679;38.732;-121.358;2023-08-06T11:21:32;8.32;;;6.50;;
49784;SDS011;35679;38.732;-121.358;2023-08-06T11:24:21;9.35;;;6.70;;
49784;SDS011;35679;38.732;-121.358;2023-08-06T11:27:13;7.93;;;6.60;;
49784;SDS011;35679;38.732;-121.358;2023-08-06T11:30:03;11.98;;;7.40;;
49784;SDS011;35679;38.732;-121.358;2023-08-06T11:32:54;9.40;;;6.88;;
49784;SDS011;35679;38.732;-121.358;2023-08-06T11:35:45;10.45;;;6.53;;
49784;SDS011;35679;38.732;-121.358;2023-08-06T11:38:35;11.13;;;6.72;;
49784;SDS011;35679;38.732;-121.358;2023-08-06T11:41:24;8.15;;;6.28;;
49784;SDS011;35679;38.732;-121.358;2023-08-06T11:44:14;8.50;;;6.45;;
49784;SDS011;35679;38.732;-121.358;2023-08-06T11:47:04;11.05;;;6.60;;
49784;SDS011;35679;38.732;-121.358;2023-08-06T11:49:54;12.73;;;7.18;;
49784;SDS011;35679;38.732;-121.358;2023-08-06T11:52:43;9.52;;;6.90;;
49784;SDS011;35679;38.732;-121.358;2023-08-06T11:55:33;8.95;;;6.50;;
49784;SDS011;35679;38.732;-121.358;2023-08-06T11:58:24;11.00;;;6.97;;
49784;SDS011;35679;38.732;-121.358;2023-08-06T12:01:13;10.93;;;6.80;;
49784;SDS011;35679;38.732;-121.358;2023-08-06T12:04:04;9.55;;;6.32;;
49784;SDS011;35679;38.732;-121.358;2023-08-06T12:06:54;9.40;;;7.20;;
49784;SDS011;35679;38.732;-121.358;2023-08-06T12:09:43;8.07;;;6.45;;
49784;SDS011;35679;38.732;-121.358;2023-08-06T12:12:33;9.20;;;6.60;;
49784;SDS011;35679;38.732;-121.358;2023-08-06T12:15:23;10.95;;;7.22;;
49784;SDS011;35679;38.732;-121.358;2023-08-06T12:18:13;12.82;;;7.07;;
49784;SDS011;35679;38.732;-121.358;2023-08-06T12:21:02;9.35;;;7.18;;
49784;SDS011;35679;38.732;-121.358;2023-08-06T12:23:52;11.23;;;7.20;;
49784;SDS011;35679;38.732;-121.358;2023-08-06T12:26:41;12.10;;;7.35;;
49784;SDS011;35679;38.732;-121.358;2023-08-06T12:29:30;9.65;;;6.53;;
49784;SDS011;35679;38.732;-121.358;2023-08-06T12:32:20;9.85;;;7.28;;
49784;SDS011;35679;38.732;-121.358;2023-08-06T12:35:10;9.85;;;7.13;;
49784;SDS011;35679;38.732;-121.358;2023-08-06T12:37:59;11.70;;;7.38;;
49784;SDS011;35679;38.732;-121.358;2023-08-06T12:40:49;10.57;;;6.93;;
49784;SDS011;35679;38.732;-121.358;2023-08-06T12:43:38;9.00;;;6.82;;
49784;SDS011;35679;38.732;-121.358;2023-08-06T12:46:27;11.68;;;7.03;;
49784;SDS011;35679;38.732;-121.358;2023-08-06T12:49:20;9.43;;;6.93;;
49784;SDS011;35679;38.732;-121.358;2023-08-06T12:52:10;8.23;;;7.00;;
49784;SDS011;35679;38.732;-121.358;2023-08-06T12:55:01;9.20;;;6.85;;
49784;SDS011;35679;38.732;-121.358;2023-08-06T12:57:50;11.00;;;7.45;;
49784;SDS011;35679;38.732;-121.358;2023-08-06T13:00:45;10.68;;;7.80;;
49784;SDS011;35679;38.732;-121.358;2023-08-06T13:03:34;9.77;;;7.10;;
49784;SDS011;35679;38.732;-121.358;2023-08-06T13:06:24;13.10;;;7.65;;
49784;SDS011;35679;38.732;-121.358;2023-08-06T13:09:13;8.98;;;7.53;;
49784;SDS011;35679;38.732;-121.358;2023-08-06T13:12:04;10.68;;;7.20;;
49784;SDS011;35679;38.732;-121.358;2023-08-06T13:14:54;7.80;;;6.75;;
49784;SDS011;35679;38.732;-121.358;2023-08-06T13:17:45;6.90;;;5.50;;
49784;SDS011;35679;38.732;-121.358;2023-08-06T13:20:37;12.43;;;7.30;;
49784;SDS011;35679;38.732;-121.358;2023-08-06T13:23:30;7.45;;;6.57;;
49784;SDS011;35679;38.732;-121.358;2023-08-06T13:26:19;10.90;;;7.35;;
49784;SDS011;35679;38.732;-121.358;2023-08-06T13:29:08;9.75;;;7.20;;
49784;SDS011;35679;38.732;-121.358;2023-08-06T13:31:58;9.77;;;7.18;;
49784;SDS011;35679;38.732;-121.358;2023-08-06T13:34:48;9.38;;;7.22;;
49784;SDS011;35679;38.732;-121.358;2023-08-06T13:37:38;8.75;;;6.15;;
49784;SDS011;35679;38.732;-121.358;2023-08-06T13:40:28;10.45;;;6.88;;
49784;SDS011;35679;38.732;-121.358;2023-08-06T13:43:21;10.02;;;7.15;;
49784;SDS011;35679;38.732;-121.358;2023-08-06T13:46:10;10.98;;;7.30;;
49784;SDS011;35679;38.732;-121.358;2023-08-06T13:49:04;10.27;;;6.47;;
49784;SDS011;35679;38.732;-121.358;2023-08-06T13:51:54;12.88;;;7.18;;
49784;SDS011;35679;38.732;-121.358;2023-08-06T13:54:58;8.88;;;7.22;;
49784;SDS011;35679;38.732;-121.358;2023-08-06T13:57:48;11.07;;;6.25;;
49784;SDS011;35679;38.732;-121.358;2023-08-06T14:00:37;9.70;;;6.32;;
49784;SDS011;35679;38.732;-121.358;2023-08-06T14:03:27;15.55;;;7.80;;
49784;SDS011;35679;38.732;-121.358;2023-08-06T14:06:16;16.83;;;7.88;;
49784;SDS011;35679;38.732;-121.358;2023-08-06T14:09:06;17.00;;;7.00;;
49784;SDS011;35679;38.732;-121.358;2023-08-06T14:11:56;12.40;;;6.78;;
49784;SDS011;35679;38.732;-121.358;2023-08-06T14:14:45;11.35;;;7.25;;
49784;SDS011;35679;38.732;-121.358;2023-08-06T14:17:34;11.32;;;7.03;;
49784;SDS011;35679;38.732;-121.358;2023-08-06T14:20:24;11.73;;;7.45;;
49784;SDS011;35679;38.732;-121.358;2023-08-06T14:23:13;10.90;;;7.30;;
49784;SDS011;35679;38.732;-121.358;2023-08-06T14:26:03;29.83;;;7.85;;
49784;SDS011;35679;38.732;-121.358;2023-08-06T14:28:52;14.57;;;6.60;;
49784;SDS011;35679;38.732;-121.358;2023-08-06T14:31:42;9.68;;;7.18;;
49784;SDS011;35679;38.732;-121.358;2023-08-06T14:34:32;11.25;;;7.70;;
49784;SDS011;35679;38.732;-121.358;2023-08-06T14:37:21;9.68;;;7.60;;
49784;SDS011;35679;38.732;-121.358;2023-08-06T14:40:11;11.95;;;7.45;;
49784;SDS011;35679;38.732;-121.358;2023-08-06T14:43:00;10.18;;;8.07;;
49784;SDS011;35679;38.732;-121.358;2023-08-06T14:45:51;11.15;;;8.30;;
49784;SDS011;35679;38.732;-121.358;2023-08-06T14:48:40;12.70;;;7.72;;
49784;SDS011;35679;38.732;-121.358;2023-08-06T14:51:30;9.65;;;7.82;;
49784;SDS011;35679;38.732;-121.358;2023-08-06T14:54:22;12.57;;;8.15;;
49784;SDS011;35679;38.732;-121.358;2023-08-06T14:57:11;12.13;;;8.68;;
49784;SDS011;35679;38.732;-121.358;2023-08-06T15:00:02;11.50;;;8.57;;
49784;SDS011;35679;38.732;-121.358;2023-08-06T15:02:51;12.80;;;8.50;;
49784;SDS011;35679;38.732;-121.358;2023-08-06T15:05:46;13.38;;;8.93;;
49784;SDS011;35679;38.732;-121.358;2023-08-06T15:08:37;12.00;;;8.38;;
49784;SDS011;35679;38.732;-121.358;2023-08-06T15:11:27;14.93;;;8.45;;
49784;SDS011;35679;38.732;-121.358;2023-08-06T15:14:16;12.57;;;8.07;;
49784;SDS011;35679;38.732;-121.358;2023-08-06T15:17:05;11.27;;;8.10;;
49784;SDS011;35679;38.732;-121.358;2023-08-06T15:19:58;12.05;;;8.40;;
49784;SDS011;35679;38.732;-121.358;2023-08-06T15:22:47;13.57;;;8.52;;
49784;SDS011;35679;38.732;-121.358;2023-08-06T15:25:36;11.13;;;7.85;;
49784;SDS011;35679;38.732;-121.358;2023-08-06T15:28:26;9.52;;;8.15;;
49784;SDS011;35679;38.732;-121.358;2023-08-06T15:31:18;9.55;;;7.72;;
49784;SDS011;35679;38.732;-121.358;2023-08-06T15:34:09;8.65;;;7.70;;
49784;SDS011;35679;38.732;-121.358;2023-08-06T15:36:58;11.32;;;8.20;;
49784;SDS011;35679;38.732;-121.358;2023-08-06T15:39:48;11.05;;;8.00;;
49784;SDS011;35679;38.732;-121.358;2023-08-06T15:42:37;8.82;;;7.25;;
49784;SDS011;35679;38.732;-121.358;2023-08-06T15:45:26;10.38;;;7.80;;
49784;SDS011;35679;38.732;-121.358;2023-08-06T15:48:16;8.70;;;7.63;;
49784;SDS011;35679;38.732;-121.358;2023-08-06T15:51:05;8.52;;;7.38;;
49784;SDS011;35679;38.732;-121.358;2023-08-06T15:53:54;18.20;;;7.95;;
49784;SDS011;35679;38.732;-121.358;2023-08-06T15:56:44;10.15;;;7.82;;
49784;SDS011;35679;38.732;-121.358;2023-08-06T15:59:33;9.45;;;7.72;;
49784;SDS011;35679;38.732;-121.358;2023-08-06T16:02:22;9.32;;;7.72;;
49784;SDS011;35679;38.732;-121.358;2023-08-06T16:05:12;12.27;;;8.27;;
49784;SDS011;35679;38.732;-121.358;2023-08-06T16:08:02;12.02;;;7.88;;
49784;SDS011;35679;38.732;-121.358;2023-08-06T16:10:52;9.82;;;7.80;;
49784;SDS011;35679;38.732;-121.358;2023-08-06T16:13:41;11.30;;;7.90;;
49784;SDS011;35679;38.732;-121.358;2023-08-06T16:16:30;10.30;;;7.82;;
49784;SDS011;35679;38.732;-121.358;2023-08-06T16:19:21;11.25;;;7.65;;
49784;SDS011;35679;38.732;-121.358;2023-08-06T16:22:10;11.93;;;7.30;;
49784;SDS011;35679;38.732;-121.358;2023-08-06T16:24:59;36.92;;;9.27;;
49784;SDS011;35679;38.732;-121.358;2023-08-06T16:27:49;63.92;;;12.38;;
49784;SDS011;35679;38.732;-121.358;2023-08-06T16:30:45;72.25;;;11.75;;
49784;SDS011;35679;38.732;-121.358;2023-08-06T16:33:34;67.53;;;12.23;;
49784;SDS011;35679;38.732;-121.358;2023-08-06T16:36:25;41.35;;;11.00;;
49784;SDS011;35679;38.732;-121.358;2023-08-06T16:39:14;44.97;;;10.85;;
49784;SDS011;35679;38.732;-121.358;2023-08-06T16:42:08;42.95;;;10.07;;
49784;SDS011;35679;38.732;-121.358;2023-08-06T16:44:57;34.55;;;9.75;;